sensor_id;sensor_type;location;lat;lon;timestamp;pressure;altitude;pressure_sealevel;temperature;humidity
57594;BME280;43423;46.510;6.686;2023-12-20T00:00:26;96857.88;;;4.40;100.00
57594;BME280;43423;46.510;6.686;2023-12-20T00:03:11;96853.91;;;4.28;100.00
57594;BME280;43423;46.510;6.686;2023-12-20T00:05:37;96855.31;;;4.33;100.00
57594;BME280;43423;46.510;6.686;2023-12-20T00:08:06;96847.66;;;4.44;100.00
57594;BME280;43423;46.510;6.686;2023-12-20T00:10:32;96857.44;;;4.41;100.00
57594;BME280;43423;46.510;6.686;2023-12-20T00:12:57;96854.31;;;4.43;100.00
57594;BME280;43423;46.510;6.686;2023-12-20T00:15:23;96850.72;;;4.46;100.00
57594;BME280;43423;46.510;6.686;2023-12-20T00:17:48;96850.41;;;4.44;100.00
57594;BME280;43423;46.510;6.686;2023-12-20T00:20:14;96849.63;;;4.43;100.00
57594;BME280;43423;46.510;6.686;2023-12-20T00:22:40;96839.41;;;4.47;100.00
57594;BME280;43423;46.510;6.686;2023-12-20T00:25:07;96849.38;;;4.38;100.00
57594;BME280;43423;46.510;6.686;2023-12-20T00:27:32;96855.47;;;4.42;100.00
57594;BME280;43423;46.510;6.686;2023-12-20T00:29:58;96846.22;;;4.39;100.00
57594;BME280;43423;46.510;6.686;2023-12-20T00:32:23;96846.28;;;4.52;100.00
57594;BME280;43423;46.510;6.686;2023-12-20T00:34:50;96841.19;;;4.54;100.00
57594;BME280;43423;46.510;6.686;2023-12-20T00:37:16;96848.28;;;4.64;100.00
57594;BME280;43423;46.510;6.686;2023-12-20T00:39:42;96852.69;;;4.45;100.00
57594;BME280;43423;46.510;6.686;2023-12-20T00:42:07;96843.75;;;4.45;100.00
57594;BME280;43423;46.510;6.686;2023-12-20T00:44:33;96846.81;;;4.47;100.00
57594;BME280;43423;46.510;6.686;2023-12-20T00:46:59;96842.88;;;4.48;100.00
57594;BME280;43423;46.510;6.686;2023-12-20T00:49:24;96851.28;;;4.70;100.00
57594;BME280;43423;46.510;6.686;2023-12-20T00:51:50;96862.78;;;4.61;100.00
57594;BME280;43423;46.510;6.686;2023-12-20T00:54:18;96857.19;;;4.52;100.00
57594;BME280;43423;46.510;6.686;2023-12-20T00:56:44;96855.22;;;4.53;100.00
57594;BME280;43423;46.510;6.686;2023-12-20T00:59:09;96852.56;;;4.49;100.00
57594;BME280;43423;46.510;6.686;2023-12-20T01:01:36;96846.66;;;4.38;100.00
57594;BME280;43423;46.510;6.686;2023-12-20T01:04:01;96836.97;;;4.37;100.00
57594;BME280;43423;46.510;6.686;2023-12-20T01:06:27;96840.50;;;4.50;100.00
57594;BME280;43423;46.510;6.686;2023-12-20T01:08:53;96853.88;;;4.44;100.00
57594;BME280;43423;46.510;6.686;2023-12-20T01:11:18;96855.91;;;4.40;100.00
57594;BME280;43423;46.510;6.686;2023-12-20T01:13:44;96859.56;;;4.50;100.00
57594;BME280;43423;46.510;6.686;2023-12-20T01:16:10;96864.06;;;4.57;100.00
57594;BME280;43423;46.510;6.686;2023-12-20T01:18:37;96853.00;;;4.47;100.00
57594;BME280;43423;46.510;6.686;2023-12-20T01:21:03;96849.34;;;4.54;100.00
57594;BME280;43423;46.510;6.686;2023-12-20T01:23:29;96842.69;;;4.55;100.00
57594;BME280;43423;46.510;6.686;2023-12-20T01:25:54;96848.25;;;4.52;100.00
57594;BME280;43423;46.510;6.686;2023-12-20T01:28:20;96838.63;;;4.47;100.00
57594;BME280;43423;46.510;6.686;2023-12-20T01:30:46;96844.91;;;4.60;100.00
57594;BME280;43423;46.510;6.686;2023-12-20T01:33:12;96844.38;;;4.65;100.00
57594;BME280;43423;46.510;6.686;2023-12-20T01:35:37;96849.44;;;4.80;100.00
57594;BME280;43423;46.510;6.686;2023-12-20T01:38:03;96858.06;;;4.78;100.00
57594;BME280;43423;46.510;6.686;2023-12-20T01:40:28;96843.16;;;4.83;100.00
57594;BME280;43423;46.510;6.686;2023-12-20T01:43:02;96838.13;;;4.81;100.00
57594;BME280;43423;46.510;6.686;2023-12-20T01:45:28;96843.47;;;4.85;100.00
57594;BME280;43423;46.510;6.686;2023-12-20T01:47:55;96847.59;;;4.76;100.00
57594;BME280;43423;46.510;6.686;2023-12-20T01:50:21;96851.31;;;4.83;100.00
57594;BME280;43423;46.510;6.686;2023-12-20T01:52:48;96841.81;;;4.74;100.00
57594;BME280;43423;46.510;6.686;2023-12-20T01:55:14;96840.44;;;4.83;100.00
57594;BME280;43423;46.510;6.686;2023-12-20T01:57:42;96850.97;;;4.81;100.00
57594;BME280;43423;46.510;6.686;2023-12-20T02:00:09;96861.69;;;4.88;100.00
57594;BME280;43423;46.510;6.686;2023-12-20T02:02:37;96863.75;;;4.84;100.00
57594;BME280;43423;46.510;6.686;2023-12-20T02:05:05;96872.38;;;4.82;100.00
57594;BME280;43423;46.510;6.686;2023-12-20T02:07:31;96869.19;;;4.84;100.00
57594;BME280;43423;46.510;6.686;2023-12-20T02:09:57;96862.81;;;4.90;100.00
57594;BME280;43423;46.510;6.686;2023-12-20T02:12:23;96864.41;;;4.88;100.00
57594;BME280;43423;46.510;6.686;2023-12-20T02:14:49;96869.16;;;5.00;100.00
57594;BME280;43423;46.510;6.686;2023-12-20T02:17:15;96860.41;;;4.92;100.00
57594;BME280;43423;46.510;6.686;2023-12-20T02:19:41;96862.22;;;4.83;100.00
57594;BME280;43423;46.510;6.686;2023-12-20T02:22:11;96864.25;;;4.79;100.00
57594;BME280;43423;46.510;6.686;2023-12-20T02:24:36;96861.69;;;4.88;100.00
57594;BME280;43423;46.510;6.686;2023-12-20T02:27:03;96866.44;;;5.00;100.00
57594;BME280;43423;46.510;6.686;2023-12-20T02:29:30;96856.03;;;4.95;100.00
57594;BME280;43423;46.510;6.686;2023-12-20T02:31:56;96863.88;;;4.93;100.00
57594;BME280;43423;46.510;6.686;2023-12-20T02:34:22;96871.31;;;4.92;100.00
57594;BME280;43423;46.510;6.686;2023-12-20T02:36:47;96864.75;;;4.90;100.00
57594;BME280;43423;46.510;6.686;2023-12-20T02:39:13;96864.25;;;4.79;100.00
57594;BME280;43423;46.510;6.686;2023-12-20T02:41:39;96860.03;;;4.78;100.00
57594;BME280;43423;46.510;6.686;2023-12-20T02:44:05;96856.59;;;4.73;100.00
57594;BME280;43423;46.510;6.686;2023-12-20T02:46:30;96850.31;;;4.76;100.00
57594;BME280;43423;46.510;6.686;2023-12-20T02:48:56;96838.84;;;4.69;100.00
57594;BME280;43423;46.510;6.686;2023-12-20T02:51:22;96843.09;;;4.70;100.00
57594;BME280;43423;46.510;6.686;2023-12-20T02:53:47;96839.00;;;4.78;100.00
57594;BME280;43423;46.510;6.686;2023-12-20T02:56:13;96847.06;;;4.82;100.00
57594;BME280;43423;46.510;6.686;2023-12-20T02:58:39;96842.28;;;4.86;100.00
57594;BME280;43423;46.510;6.686;2023-12-20T03:01:05;96837.72;;;4.83;100.00
57594;BME280;43423;46.510;6.686;2023-12-20T03:03:31;96839.22;;;4.84;100.00
57594;BME280;43423;46.510;6.686;2023-12-20T03:05:57;96837.94;;;4.88;100.00
57594;BME280;43423;46.510;6.686;2023-12-20T03:08:23;96831.19;;;4.93;100.00
57594;BME280;43423;46.510;6.686;2023-12-20T03:10:49;96834.44;;;4.88;100.00
57594;BME280;43423;46.510;6.686;2023-12-20T03:13:14;96828.16;;;4.91;100.00
57594;BME280;43423;46.510;6.686;2023-12-20T03:15:40;96828.97;;;4.88;100.00
57594;BME280;43423;46.510;6.686;2023-12-20T03:18:05;96819.63;;;4.89;100.00
57594;BME280;43423;46.510;6.686;2023-12-20T03:20:31;96818.44;;;4.90;100.00
57594;BME280;43423;46.510;6.686;2023-12-20T03:23:02;96823.34;;;4.95;100.00
57594;BME280;43423;46.510;6.686;2023-12-20T03:25:28;96838.06;;;4.97;100.00
57594;BME280;43423;46.510;6.686;2023-12-20T03:27:54;96834.25;;;4.95;100.00
57594;BME280;43423;46.510;6.686;2023-12-20T03:30:19;96831.72;;;4.88;100.00
57594;BME280;43423;46.510;6.686;2023-12-20T03:32:46;96835.13;;;4.92;100.00
57594;BME280;43423;46.510;6.686;2023-12-20T03:35:12;96828.66;;;4.86;100.00
57594;BME280;43423;46.510;6.686;2023-12-20T03:37:38;96841.66;;;4.94;100.00
57594;BME280;43423;46.510;6.686;2023-12-20T03:40:04;96833.81;;;4.96;100.00
57594;BME280;43423;46.510;6.686;2023-12-20T03:42:30;96829.34;;;4.90;100.00
57594;BME280;43423;46.510;6.686;2023-12-20T03:44:56;96831.00;;;5.00;100.00
57594;BME280;43423;46.510;6.686;2023-12-20T03:47:21;96832.81;;;4.90;100.00
57594;BME280;43423;46.510;6.686;2023-12-20T03:49:47;96836.63;;;4.93;100.00
57594;BME280;43423;46.510;6.686;2023-12-20T03:52:13;96835.31;;;4.85;100.00
57594;BME280;43423;46.510;6.686;2023-12-20T03:54:39;96827.38;;;4.90;100.00
57594;BME280;43423;46.510;6.686;2023-12-20T03:57:06;96831.53;;;4.95;100.00
57594;BME280;43423;46.510;6.686;2023-12-20T03:59:38;96826.81;;;4.95;100.00
57594;BME280;43423;46.510;6.686;2023-12-20T04:02:04;96839.38;;;4.93;100.00
57594;BME280;43423;46.510;6.686;2023-12-20T04:04:30;96825.22;;;4.98;100.00
57594;BME280;43423;46.510;6.686;2023-12-20T04:06:55;96838.94;;;4.94;100.00
57594;BME280;43423;46.510;6.686;2023-12-20T04:09:21;96828.56;;;4.89;100.00
57594;BME280;43423;46.510;6.686;2023-12-20T04:11:46;96828.91;;;4.91;100.00
57594;BME280;43423;46.510;6.686;2023-12-20T04:14:12;96826.69;;;4.86;100.00
57594;BME280;43423;46.510;6.686;2023-12-20T04:16:38;96821.50;;;4.92;100.00
57594;BME280;43423;46.510;6.686;2023-12-20T04:19:04;96819.41;;;4.96;100.00
57594;BME280;43423;46.510;6.686;2023-12-20T04:21:30;96822.69;;;4.91;100.00
57594;BME280;43423;46.510;6.686;2023-12-20T04:23:56;96829.66;;;4.92;100.00
57594;BME280;43423;46.510;6.686;2023-12-20T04:26:22;96826.19;;;4.91;100.00
57594;BME280;43423;46.510;6.686;2023-12-20T04:28:47;96814.84;;;4.93;100.00
57594;BME280;43423;46.510;6.686;2023-12-20T04:31:13;96810.59;;;4.92;100.00
57594;BME280;43423;46.510;6.686;2023-12-20T04:33:39;96811.34;;;4.92;100.00
57594;BME280;43423;46.510;6.686;2023-12-20T04:36:04;96822.19;;;5.09;100.00
57594;BME280;43423;46.510;6.686;2023-12-20T04:38:30;96823.34;;;4.95;100.00
57594;BME280;43423;46.510;6.686;2023-12-20T04:40:56;96830.44;;;4.92;100.00
57594;BME280;43423;46.510;6.686;2023-12-20T04:43:22;96824.75;;;4.87;100.00
57594;BME280;43423;46.510;6.686;2023-12-20T04:45:48;96827.47;;;4.87;100.00
57594;BME280;43423;46.510;6.686;2023-12-20T04:48:13;96830.31;;;4.96;100.00
57594;BME280;43423;46.510;6.686;2023-12-20T04:50:39;96836.22;;;4.94;100.00
57594;BME280;43423;46.510;6.686;2023-12-20T04:53:04;96831.44;;;4.98;100.00
57594;BME280;43423;46.510;6.686;2023-12-20T04:55:30;96828.78;;;4.95;100.00
57594;BME280;43423;46.510;6.686;2023-12-20T04:57:55;96828.41;;;4.80;100.00
57594;BME280;43423;46.510;6.686;2023-12-20T05:00:22;96838.66;;;4.76;100.00
57594;BME280;43423;46.510;6.686;2023-12-20T05:02:47;96841.72;;;4.78;100.00
57594;BME280;43423;46.510;6.686;2023-12-20T05:05:13;96840.25;;;4.73;100.00
57594;BME280;43423;46.510;6.686;2023-12-20T05:07:40;96845.19;;;4.79;100.00
57594;BME280;43423;46.510;6.686;2023-12-20T05:10:07;96847.84;;;4.82;100.00
57594;BME280;43423;46.510;6.686;2023-12-20T05:12:35;96846.66;;;4.83;100.00
57594;BME280;43423;46.510;6.686;2023-12-20T05:15:01;96848.53;;;4.70;100.00
57594;BME280;43423;46.510;6.686;2023-12-20T05:17:26;96855.78;;;4.76;100.00
57594;BME280;43423;46.510;6.686;2023-12-20T05:19:52;96846.16;;;4.72;100.00
57594;BME280;43423;46.510;6.686;2023-12-20T05:22:19;96851.16;;;4.73;100.00
57594;BME280;43423;46.510;6.686;2023-12-20T05:24:45;96859.34;;;4.73;100.00
57594;BME280;43423;46.510;6.686;2023-12-20T05:27:10;96863.38;;;4.69;100.00
57594;BME280;43423;46.510;6.686;2023-12-20T05:29:37;96859.91;;;4.81;100.00
57594;BME280;43423;46.510;6.686;2023-12-20T05:32:02;96852.69;;;5.03;100.00
57594;BME280;43423;46.510;6.686;2023-12-20T05:34:30;96853.88;;;4.90;100.00
57594;BME280;43423;46.510;6.686;2023-12-20T05:36:57;96863.75;;;4.84;100.00
57594;BME280;43423;46.510;6.686;2023-12-20T05:39:23;96875.94;;;5.08;100.00
57594;BME280;43423;46.510;6.686;2023-12-20T05:41:49;96888.22;;;5.00;100.00
57594;BME280;43423;46.510;6.686;2023-12-20T05:44:15;96905.34;;;5.00;100.00
57594;BME280;43423;46.510;6.686;2023-12-20T05:46:40;96905.66;;;5.02;100.00
57594;BME280;43423;46.510;6.686;2023-12-20T05:49:06;96898.94;;;5.07;100.00
57594;BME280;43423;46.510;6.686;2023-12-20T05:51:32;96892.47;;;5.01;100.00
57594;BME280;43423;46.510;6.686;2023-12-20T05:53:58;96888.75;;;4.95;100.00
57594;BME280;43423;46.510;6.686;2023-12-20T05:56:24;96885.78;;;4.89;100.00
57594;BME280;43423;46.510;6.686;2023-12-20T05:58:49;96882.13;;;4.80;100.00
57594;BME280;43423;46.510;6.686;2023-12-20T06:01:15;96877.38;;;4.84;100.00
57594;BME280;43423;46.510;6.686;2023-12-20T06:03:42;96882.09;;;4.96;100.00
57594;BME280;43423;46.510;6.686;2023-12-20T06:06:09;96891.09;;;5.09;100.00
57594;BME280;43423;46.510;6.686;2023-12-20T06:08:35;96890.50;;;5.01;100.00
57594;BME280;43423;46.510;6.686;2023-12-20T06:11:01;96888.56;;;5.02;100.00
57594;BME280;43423;46.510;6.686;2023-12-20T06:13:26;96894.13;;;4.98;100.00
57594;BME280;43423;46.510;6.686;2023-12-20T06:15:54;96884.16;;;4.92;100.00
57594;BME280;43423;46.510;6.686;2023-12-20T06:18:21;96886.81;;;4.79;100.00
57594;BME280;43423;46.510;6.686;2023-12-20T06:20:46;96883.91;;;4.86;100.00
57594;BME280;43423;46.510;6.686;2023-12-20T06:23:12;96887.34;;;5.03;100.00
57594;BME280;43423;46.510;6.686;2023-12-20T06:25:37;96895.72;;;4.96;100.00
57594;BME280;43423;46.510;6.686;2023-12-20T06:28:03;96897.78;;;4.92;100.00
57594;BME280;43423;46.510;6.686;2023-12-20T06:30:29;96905.78;;;4.99;100.00
57594;BME280;43423;46.510;6.686;2023-12-20T06:32:54;96898.69;;;5.01;100.00
57594;BME280;43423;46.510;6.686;2023-12-20T06:35:22;96891.84;;;4.81;100.00
57594;BME280;43423;46.510;6.686;2023-12-20T06:37:49;96890.28;;;4.96;100.00
57594;BME280;43423;46.510;6.686;2023-12-20T06:40:14;96898.69;;;5.01;100.00
57594;BME280;43423;46.510;6.686;2023-12-20T06:42:40;96900.16;;;5.19;100.00
57594;BME280;43423;46.510;6.686;2023-12-20T06:45:06;96900.03;;;5.10;100.00
57594;BME280;43423;46.510;6.686;2023-12-20T06:47:31;96904.38;;;5.07;100.00
57594;BME280;43423;46.510;6.686;2023-12-20T06:49:57;96902.28;;;4.98;100.00
57594;BME280;43423;46.510;6.686;2023-12-20T06:52:23;96905.78;;;4.99;100.00
57594;BME280;43423;46.510;6.686;2023-12-20T06:54:48;96904.31;;;4.94;100.00
57594;BME280;43423;46.510;6.686;2023-12-20T06:57:14;96912.00;;;4.99;100.00
57594;BME280;43423;46.510;6.686;2023-12-20T06:59:43;96906.53;;;4.99;100.00
57594;BME280;43423;46.510;6.686;2023-12-20T07:02:09;96908.16;;;4.97;100.00
57594;BME280;43423;46.510;6.686;2023-12-20T07:04:39;96907.34;;;4.84;100.00
57594;BME280;43423;46.510;6.686;2023-12-20T07:07:06;96913.56;;;4.84;100.00
57594;BME280;43423;46.510;6.686;2023-12-20T07:09:32;96911.09;;;4.90;100.00
57594;BME280;43423;46.510;6.686;2023-12-20T07:11:58;96914.34;;;4.97;100.00
57594;BME280;43423;46.510;6.686;2023-12-20T07:14:24;96914.59;;;5.03;100.00
57594;BME280;43423;46.510;6.686;2023-12-20T07:16:50;96918.34;;;5.09;100.00
57594;BME280;43423;46.510;6.686;2023-12-20T07:19:15;96915.75;;;5.18;100.00
57594;BME280;43423;46.510;6.686;2023-12-20T07:21:41;96924.56;;;5.10;100.00
57594;BME280;43423;46.510;6.686;2023-12-20T07:24:06;96921.41;;;5.11;100.00
57594;BME280;43423;46.510;6.686;2023-12-20T07:26:32;96920.81;;;5.03;100.00
57594;BME280;43423;46.510;6.686;2023-12-20T07:28:59;96919.09;;;5.10;100.00
57594;BME280;43423;46.510;6.686;2023-12-20T07:31:25;96923.69;;;5.13;100.00
57594;BME280;43423;46.510;6.686;2023-12-20T07:33:50;96935.41;;;4.97;100.00
57594;BME280;43423;46.510;6.686;2023-12-20T07:36:16;96937.94;;;5.04;100.00
57594;BME280;43423;46.510;6.686;2023-12-20T07:38:42;96941.44;;;5.04;100.00
57594;BME280;43423;46.510;6.686;2023-12-20T07:41:10;96949.34;;;5.15;100.00
57594;BME280;43423;46.510;6.686;2023-12-20T07:43:36;96945.31;;;5.20;100.00
57594;BME280;43423;46.510;6.686;2023-12-20T07:46:06;96943.44;;;5.17;100.00
57594;BME280;43423;46.510;6.686;2023-12-20T07:48:33;96954.25;;;5.20;100.00
57594;BME280;43423;46.510;6.686;2023-12-20T07:50:59;96963.53;;;5.23;100.00
57594;BME280;43423;46.510;6.686;2023-12-20T07:53:24;96960.06;;;5.22;100.00
57594;BME280;43423;46.510;6.686;2023-12-20T07:55:50;96965.22;;;5.33;100.00
57594;BME280;43423;46.510;6.686;2023-12-20T07:58:17;96968.56;;;5.24;100.00
57594;BME280;43423;46.510;6.686;2023-12-20T08:00:43;96962.09;;;5.18;100.00
57594;BME280;43423;46.510;6.686;2023-12-20T08:03:09;96960.56;;;5.17;100.00
57594;BME280;43423;46.510;6.686;2023-12-20T08:05:35;96968.50;;;5.12;100.00
57594;BME280;43423;46.510;6.686;2023-12-20T08:08:01;96970.72;;;5.17;100.00
57594;BME280;43423;46.510;6.686;2023-12-20T08:10:27;96972.69;;;5.16;100.00
57594;BME280;43423;46.510;6.686;2023-12-20T08:12:55;96977.25;;;5.19;100.00
57594;BME280;43423;46.510;6.686;2023-12-20T08:15:20;96970.56;;;5.08;100.00
57594;BME280;43423;46.510;6.686;2023-12-20T08:17:46;96960.63;;;5.01;100.00
57594;BME280;43423;46.510;6.686;2023-12-20T08:20:12;96959.34;;;5.06;100.00
57594;BME280;43423;46.510;6.686;2023-12-20T08:22:37;96955.16;;;5.01;100.00
57594;BME280;43423;46.510;6.686;2023-12-20T08:25:03;96960.88;;;5.07;100.00
57594;BME280;43423;46.510;6.686;2023-12-20T08:27:29;96969.97;;;5.00;100.00
57594;BME280;43423;46.510;6.686;2023-12-20T08:29:56;96979.50;;;5.08;100.00
57594;BME280;43423;46.510;6.686;2023-12-20T08:32:25;96979.84;;;5.10;100.00
57594;BME280;43423;46.510;6.686;2023-12-20T08:34:50;96989.31;;;5.06;100.00
57594;BME280;43423;46.510;6.686;2023-12-20T08:37:16;96987.34;;;5.06;100.00
57594;BME280;43423;46.510;6.686;2023-12-20T08:39:42;96994.91;;;5.15;100.00
57594;BME280;43423;46.510;6.686;2023-12-20T08:42:09;96991.00;;;5.16;100.00
57594;BME280;43423;46.510;6.686;2023-12-20T08:44:35;96998.44;;;5.28;100.00
57594;BME280;43423;46.510;6.686;2023-12-20T08:47:00;97002.81;;;5.25;100.00
57594;BME280;43423;46.510;6.686;2023-12-20T08:49:27;97003.81;;;5.31;100.00
57594;BME280;43423;46.510;6.686;2023-12-20T08:51:53;97004.72;;;5.41;100.00
57594;BME280;43423;46.510;6.686;2023-12-20T08:54:19;97003.41;;;5.62;100.00
57594;BME280;43423;46.510;6.686;2023-12-20T08:56:45;97002.44;;;5.81;100.00
57594;BME280;43423;46.510;6.686;2023-12-20T08:59:11;97000.88;;;5.68;100.00
57594;BME280;43423;46.510;6.686;2023-12-20T09:01:37;96992.22;;;5.85;100.00
57594;BME280;43423;46.510;6.686;2023-12-20T09:04:03;97003.13;;;5.85;100.00
57594;BME280;43423;46.510;6.686;2023-12-20T09:06:29;96999.19;;;5.86;100.00
57594;BME280;43423;46.510;6.686;2023-12-20T09:08:54;97010.88;;;5.87;100.00
57594;BME280;43423;46.510;6.686;2023-12-20T09:11:20;97002.16;;;5.92;100.00
57594;BME280;43423;46.510;6.686;2023-12-20T09:13:46;97010.38;;;6.05;100.00
57594;BME280;43423;46.510;6.686;2023-12-20T09:16:11;97004.16;;;6.04;100.00
57594;BME280;43423;46.510;6.686;2023-12-20T09:18:38;97007.00;;;6.01;100.00
57594;BME280;43423;46.510;6.686;2023-12-20T09:21:04;97008.19;;;6.00;100.00
57594;BME280;43423;46.510;6.686;2023-12-20T09:23:30;97000.75;;;6.00;100.00
57594;BME280;43423;46.510;6.686;2023-12-20T09:25:55;97001.88;;;6.15;100.00
57594;BME280;43423;46.510;6.686;2023-12-20T09:28:21;96997.63;;;6.14;100.00
57594;BME280;43423;46.510;6.686;2023-12-20T09:30:46;96996.00;;;6.17;100.00
57594;BME280;43423;46.510;6.686;2023-12-20T09:33:14;96989.53;;;6.24;100.00
57594;BME280;43423;46.510;6.686;2023-12-20T09:35:39;96994.56;;;6.12;100.00
57594;BME280;43423;46.510;6.686;2023-12-20T09:38:05;96995.66;;;6.02;100.00
57594;BME280;43423;46.510;6.686;2023-12-20T09:40:32;96995.22;;;6.04;100.00
57594;BME280;43423;46.510;6.686;2023-12-20T09:43:10;96984.94;;;6.21;100.00
57594;BME280;43423;46.510;6.686;2023-12-20T09:45:37;96988.13;;;6.19;100.00
57594;BME280;43423;46.510;6.686;2023-12-20T09:48:04;96993.16;;;6.21;100.00
57594;BME280;43423;46.510;6.686;2023-12-20T09:50:30;96983.75;;;6.22;100.00
57594;BME280;43423;46.510;6.686;2023-12-20T09:52:58;96991.97;;;6.34;100.00
57594;BME280;43423;46.510;6.686;2023-12-20T09:55:27;96990.09;;;6.31;100.00
57594;BME280;43423;46.510;6.686;2023-12-20T09:57:53;96982.25;;;6.33;100.00
57594;BME280;43423;46.510;6.686;2023-12-20T10:00:19;96985.50;;;6.54;100.00
57594;BME280;43423;46.510;6.686;2023-12-20T10:05:32;96983.41;;;6.58;100.00
57594;BME280;43423;46.510;6.686;2023-12-20T10:07:58;96983.09;;;6.56;100.00
57594;BME280;43423;46.510;6.686;2023-12-20T10:10:24;96988.22;;;6.54;100.00
57594;BME280;43423;46.510;6.686;2023-12-20T10:13:07;96983.69;;;6.85;100.00
57594;BME280;43423;46.510;6.686;2023-12-20T10:15:34;96982.97;;;6.59;100.00
57594;BME280;43423;46.510;6.686;2023-12-20T10:18:01;96980.59;;;6.49;100.00
57594;BME280;43423;46.510;6.686;2023-12-20T10:20:28;96983.50;;;6.80;100.00
57594;BME280;43423;46.510;6.686;2023-12-20T10:22:57;96975.88;;;6.62;100.00
57594;BME280;43423;46.510;6.686;2023-12-20T10:25:24;96970.63;;;6.67;100.00
57594;BME280;43423;46.510;6.686;2023-12-20T10:28:16;96966.72;;;6.56;100.00
57594;BME280;43423;46.510;6.686;2023-12-20T10:30:48;96958.84;;;6.58;100.00
57594;BME280;43423;46.510;6.686;2023-12-20T10:33:24;96952.06;;;6.50;100.00
57594;BME280;43423;46.510;6.686;2023-12-20T10:35:52;96953.78;;;6.69;100.00
57594;BME280;43423;46.510;6.686;2023-12-20T10:38:18;96953.00;;;6.68;100.00
57594;BME280;43423;46.510;6.686;2023-12-20T10:40:47;96945.34;;;7.11;100.00
57594;BME280;43423;46.510;6.686;2023-12-20T10:43:13;96950.81;;;7.11;100.00
57594;BME280;43423;46.510;6.686;2023-12-20T10:45:41;96950.63;;;7.05;100.00
57594;BME280;43423;46.510;6.686;2023-12-20T10:48:10;96945.72;;;7.88;100.00
57594;BME280;43423;46.510;6.686;2023-12-20T10:50:36;96948.75;;;8.21;100.00
57594;BME280;43423;46.510;6.686;2023-12-20T10:53:05;96948.06;;;8.70;100.00
57594;BME280;43423;46.510;6.686;2023-12-20T10:55:33;96951.41;;;8.83;100.00
57594;BME280;43423;46.510;6.686;2023-12-20T10:58:01;96952.38;;;9.16;100.00
57594;BME280;43423;46.510;6.686;2023-12-20T11:00:29;96941.09;;;9.42;100.00
57594;BME280;43423;46.510;6.686;2023-12-20T11:03:00;96940.00;;;9.39;100.00
57594;BME280;43423;46.510;6.686;2023-12-20T11:05:40;96938.66;;;9.16;100.00
57594;BME280;43423;46.510;6.686;2023-12-20T11:08:12;96928.41;;;9.44;100.00
57594;BME280;43423;46.510;6.686;2023-12-20T11:13:22;96929.13;;;9.82;100.00
57594;BME280;43423;46.510;6.686;2023-12-20T11:15:49;96920.19;;;9.44;100.00
57594;BME280;43423;46.510;6.686;2023-12-20T11:18:15;96925.84;;;9.22;100.00
57594;BME280;43423;46.510;6.686;2023-12-20T11:20:41;96921.72;;;9.00;100.00
57594;BME280;43423;46.510;6.686;2023-12-20T11:23:08;96913.88;;;8.52;100.00
57594;BME280;43423;46.510;6.686;2023-12-20T11:25:53;96931.53;;;8.51;100.00
57594;BME280;43423;46.510;6.686;2023-12-20T11:28:24;96924.53;;;8.50;100.00
57594;BME280;43423;46.510;6.686;2023-12-20T11:30:55;96910.31;;;8.33;100.00
57594;BME280;43423;46.510;6.686;2023-12-20T11:33:25;96918.28;;;8.09;100.00
57594;BME280;43423;46.510;6.686;2023-12-20T11:35:52;96916.38;;;7.88;100.00
57594;BME280;43423;46.510;6.686;2023-12-20T11:38:20;96918.50;;;7.84;100.00
57594;BME280;43423;46.510;6.686;2023-12-20T11:40:48;96915.81;;;7.71;100.00
57594;BME280;43423;46.510;6.686;2023-12-20T11:43:35;96916.13;;;7.73;100.00
57594;BME280;43423;46.510;6.686;2023-12-20T11:46:08;96913.97;;;8.30;100.00
57594;BME280;43423;46.510;6.686;2023-12-20T11:48:38;96912.25;;;8.73;100.00
57594;BME280;43423;46.510;6.686;2023-12-20T11:51:14;96909.25;;;9.17;100.00
57594;BME280;43423;46.510;6.686;2023-12-20T11:53:40;96903.25;;;9.46;100.00
57594;BME280;43423;46.510;6.686;2023-12-20T11:56:08;96905.63;;;9.81;100.00
57594;BME280;43423;46.510;6.686;2023-12-20T11:58:34;96903.72;;;10.05;100.00
57594;BME280;43423;46.510;6.686;2023-12-20T12:01:00;96903.97;;;10.49;100.00
57594;BME280;43423;46.510;6.686;2023-12-20T12:03:28;96900.94;;;10.95;98.37
57594;BME280;43423;46.510;6.686;2023-12-20T12:05:53;96902.34;;;11.29;95.79
57594;BME280;43423;46.510;6.686;2023-12-20T12:08:19;96888.34;;;11.03;97.60
57594;BME280;43423;46.510;6.686;2023-12-20T12:10:45;96902.44;;;11.35;92.42
57594;BME280;43423;46.510;6.686;2023-12-20T12:13:11;96900.31;;;11.54;96.43
57594;BME280;43423;46.510;6.686;2023-12-20T12:15:37;96895.91;;;11.32;96.30
57594;BME280;43423;46.510;6.686;2023-12-20T12:18:03;96896.97;;;10.96;94.78
57594;BME280;43423;46.510;6.686;2023-12-20T12:20:30;96887.47;;;10.97;92.18
57594;BME280;43423;46.510;6.686;2023-12-20T12:23:05;96897.16;;;10.93;90.62
57594;BME280;43423;46.510;6.686;2023-12-20T12:25:32;96890.75;;;11.10;93.15
57594;BME280;43423;46.510;6.686;2023-12-20T12:27:58;96892.09;;;11.15;94.40
57594;BME280;43423;46.510;6.686;2023-12-20T12:30:24;96882.34;;;11.43;90.94
57594;BME280;43423;46.510;6.686;2023-12-20T12:32:53;96880.72;;;11.52;90.70
57594;BME280;43423;46.510;6.686;2023-12-20T12:35:20;96891.56;;;11.55;89.10
57594;BME280;43423;46.510;6.686;2023-12-20T12:37:46;96882.41;;;11.19;89.37
57594;BME280;43423;46.510;6.686;2023-12-20T12:40:13;96897.38;;;11.72;86.92
57594;BME280;43423;46.510;6.686;2023-12-20T12:42:40;96894.78;;;11.68;87.16
57594;BME280;43423;46.510;6.686;2023-12-20T12:45:06;96892.28;;;11.26;92.15
57594;BME280;43423;46.510;6.686;2023-12-20T12:47:33;96891.72;;;11.22;85.30
57594;BME280;43423;46.510;6.686;2023-12-20T12:49:59;96887.81;;;10.75;91.42
57594;BME280;43423;46.510;6.686;2023-12-20T12:52:24;96891.38;;;10.43;94.40
57594;BME280;43423;46.510;6.686;2023-12-20T12:54:52;96895.53;;;9.96;92.69
57594;BME280;43423;46.510;6.686;2023-12-20T12:57:18;96895.88;;;10.22;97.05
57594;BME280;43423;46.510;6.686;2023-12-20T12:59:45;96898.44;;;9.83;98.60
57594;BME280;43423;46.510;6.686;2023-12-20T13:02:14;96905.56;;;9.29;100.00